sensor_id;sensor_type;location;lat;lon;timestamp;temperature;humidity
2363;DHT22;64265;51.664;7.626;2024-02-23T00:01:43;21.50;78.00
2363;DHT22;64265;51.664;7.626;2024-02-23T00:04:15;21.50;78.10
2363;DHT22;64265;51.664;7.626;2024-02-23T00:06:45;21.40;77.90
2363;DHT22;64265;51.664;7.626;2024-02-23T00:09:17;21.40;77.90
2363;DHT22;64265;51.664;7.626;2024-02-23T00:11:48;21.40;77.90
2363;DHT22;64265;51.664;7.626;2024-02-23T00:14:17;21.50;78.00
2363;DHT22;64265;51.664;7.626;2024-02-23T00:16:48;21.40;77.90
2363;DHT22;64265;51.664;7.626;2024-02-23T00:19:23;21.40;78.00
2363;DHT22;64265;51.664;7.626;2024-02-23T00:21:50;21.40;77.90
2363;DHT22;64265;51.664;7.626;2024-02-23T00:24:26;21.40;77.90
2363;DHT22;64265;51.664;7.626;2024-02-23T00:29:45;21.30;78.00
2363;DHT22;64265;51.664;7.626;2024-02-23T00:32:16;21.30;78.10
2363;DHT22;64265;51.664;7.626;2024-02-23T00:34:43;21.30;78.10
2363;DHT22;64265;51.664;7.626;2024-02-23T00:37:20;21.30;78.20
2363;DHT22;64265;51.664;7.626;2024-02-23T00:39:52;21.30;78.20
2363;DHT22;64265;51.664;7.626;2024-02-23T00:42:31;21.30;78.10
2363;DHT22;64265;51.664;7.626;2024-02-23T00:45:00;21.30;78.10
2363;DHT22;64265;51.664;7.626;2024-02-23T00:50:15;21.30;78.30
2363;DHT22;64265;51.664;7.626;2024-02-23T00:52:51;21.30;78.20
2363;DHT22;64265;51.664;7.626;2024-02-23T00:55:21;21.30;79.00
2363;DHT22;64265;51.664;7.626;2024-02-23T00:57:56;21.30;78.20
2363;DHT22;64265;51.664;7.626;2024-02-23T01:00:24;21.30;78.20
2363;DHT22;64265;51.664;7.626;2024-02-23T01:02:55;21.20;78.10
2363;DHT22;64265;51.664;7.626;2024-02-23T01:05:25;21.20;78.10
2363;DHT22;64265;51.664;7.626;2024-02-23T01:07:57;21.20;78.10
2363;DHT22;64265;51.664;7.626;2024-02-23T01:10:27;21.20;78.20
2363;DHT22;64265;51.664;7.626;2024-02-23T01:12:59;21.20;78.20
2363;DHT22;64265;51.664;7.626;2024-02-23T01:15:33;21.20;78.30
2363;DHT22;64265;51.664;7.626;2024-02-23T01:18:06;21.20;78.40
2363;DHT22;64265;51.664;7.626;2024-02-23T01:20:35;21.20;78.40
2363;DHT22;64265;51.664;7.626;2024-02-23T01:23:06;21.20;78.40
2363;DHT22;64265;51.664;7.626;2024-02-23T01:25:44;21.20;78.40
2363;DHT22;64265;51.664;7.626;2024-02-23T01:28:13;21.10;78.40
2363;DHT22;64265;51.664;7.626;2024-02-23T01:30:40;21.20;78.40
2363;DHT22;64265;51.664;7.626;2024-02-23T01:33:06;21.10;78.30
2363;DHT22;64265;51.664;7.626;2024-02-23T01:35:44;21.10;78.20
2363;DHT22;64265;51.664;7.626;2024-02-23T01:38:16;21.10;78.20
2363;DHT22;64265;51.664;7.626;2024-02-23T01:40:49;21.10;78.10
2363;DHT22;64265;51.664;7.626;2024-02-23T01:43:39;21.10;78.20
2363;DHT22;64265;51.664;7.626;2024-02-23T01:46:12;21.10;78.30
2363;DHT22;64265;51.664;7.626;2024-02-23T01:48:48;21.10;78.40
2363;DHT22;64265;51.664;7.626;2024-02-23T01:51:23;21.10;79.20
2363;DHT22;64265;51.664;7.626;2024-02-23T01:53:55;21.10;78.50
2363;DHT22;64265;51.664;7.626;2024-02-23T01:56:23;21.10;78.40
2363;DHT22;64265;51.664;7.626;2024-02-23T01:59:02;21.10;78.40
2363;DHT22;64265;51.664;7.626;2024-02-23T02:01:29;21.10;78.50
2363;DHT22;64265;51.664;7.626;2024-02-23T02:04:01;21.10;78.50
2363;DHT22;64265;51.664;7.626;2024-02-23T02:06:28;21.00;78.30
2363;DHT22;64265;51.664;7.626;2024-02-23T02:08:57;21.00;78.20
2363;DHT22;64265;51.664;7.626;2024-02-23T02:11:25;21.00;78.20
2363;DHT22;64265;51.664;7.626;2024-02-23T02:13:57;21.00;78.30
2363;DHT22;64265;51.664;7.626;2024-02-23T02:16:26;21.00;78.30
2363;DHT22;64265;51.664;7.626;2024-02-23T02:19:00;21.00;78.20
2363;DHT22;64265;51.664;7.626;2024-02-23T02:21:28;21.00;78.30
2363;DHT22;64265;51.664;7.626;2024-02-23T02:23:57;21.00;78.30
2363;DHT22;64265;51.664;7.626;2024-02-23T02:26:24;21.00;78.30
2363;DHT22;64265;51.664;7.626;2024-02-23T02:28:58;21.00;78.40
2363;DHT22;64265;51.664;7.626;2024-02-23T02:31:35;20.90;78.30
2363;DHT22;64265;51.664;7.626;2024-02-23T02:34:03;20.90;78.40
2363;DHT22;64265;51.664;7.626;2024-02-23T02:39:31;20.90;78.30
2363;DHT22;64265;51.664;7.626;2024-02-23T02:42:02;20.90;78.40
2363;DHT22;64265;51.664;7.626;2024-02-23T02:44:47;20.90;78.40
2363;DHT22;64265;51.664;7.626;2024-02-23T02:47:20;20.90;78.40
2363;DHT22;64265;51.664;7.626;2024-02-23T02:49:46;20.90;78.40
2363;DHT22;64265;51.664;7.626;2024-02-23T02:52:16;20.90;78.20
2363;DHT22;64265;51.664;7.626;2024-02-23T02:54:45;20.90;78.20
2363;DHT22;64265;51.664;7.626;2024-02-23T02:57:21;20.90;78.30
2363;DHT22;64265;51.664;7.626;2024-02-23T02:59:59;20.90;78.20
2363;DHT22;64265;51.664;7.626;2024-02-23T03:02:36;20.90;78.10
2363;DHT22;64265;51.664;7.626;2024-02-23T03:05:05;20.90;78.20
2363;DHT22;64265;51.664;7.626;2024-02-23T03:07:35;20.90;78.10
2363;DHT22;64265;51.664;7.626;2024-02-23T03:10:06;20.90;78.20
2363;DHT22;64265;51.664;7.626;2024-02-23T03:12:35;20.90;78.30
2363;DHT22;64265;51.664;7.626;2024-02-23T03:15:22;20.90;78.30
2363;DHT22;64265;51.664;7.626;2024-02-23T03:17:49;20.90;78.50
2363;DHT22;64265;51.664;7.626;2024-02-23T03:20:20;20.90;78.40
2363;DHT22;64265;51.664;7.626;2024-02-23T03:22:49;20.90;78.50
2363;DHT22;64265;51.664;7.626;2024-02-23T03:25:22;20.90;78.30
2363;DHT22;64265;51.664;7.626;2024-02-23T03:28:01;20.80;78.20
2363;DHT22;64265;51.664;7.626;2024-02-23T03:30:51;20.80;78.20
2363;DHT22;64265;51.664;7.626;2024-02-23T03:33:21;20.80;78.30
2363;DHT22;64265;51.664;7.626;2024-02-23T03:35:52;20.80;78.20
2363;DHT22;64265;51.664;7.626;2024-02-23T03:38:25;20.80;78.30
2363;DHT22;64265;51.664;7.626;2024-02-23T03:40:55;20.90;78.30
2363;DHT22;64265;51.664;7.626;2024-02-23T03:43:25;20.80;79.00
2363;DHT22;64265;51.664;7.626;2024-02-23T03:45:55;20.80;78.30
2363;DHT22;64265;51.664;7.626;2024-02-23T03:48:27;20.80;78.20
2363;DHT22;64265;51.664;7.626;2024-02-23T03:50:54;20.80;78.10
2363;DHT22;64265;51.664;7.626;2024-02-23T03:53:26;20.80;78.30
2363;DHT22;64265;51.664;7.626;2024-02-23T03:55:53;20.70;78.20
2363;DHT22;64265;51.664;7.626;2024-02-23T03:58:33;20.80;78.40
2363;DHT22;64265;51.664;7.626;2024-02-23T04:01:05;20.70;78.30
2363;DHT22;64265;51.664;7.626;2024-02-23T04:03:33;20.70;78.40
2363;DHT22;64265;51.664;7.626;2024-02-23T04:08:46;20.70;78.30
2363;DHT22;64265;51.664;7.626;2024-02-23T04:11:18;20.70;78.20
2363;DHT22;64265;51.664;7.626;2024-02-23T04:13:55;20.70;78.10
2363;DHT22;64265;51.664;7.626;2024-02-23T04:16:27;20.70;78.10
2363;DHT22;64265;51.664;7.626;2024-02-23T04:18:56;20.70;78.10
2363;DHT22;64265;51.664;7.626;2024-02-23T04:21:28;20.70;78.10
2363;DHT22;64265;51.664;7.626;2024-02-23T04:23:55;20.70;78.20
2363;DHT22;64265;51.664;7.626;2024-02-23T04:26:23;20.70;78.10
2363;DHT22;64265;51.664;7.626;2024-02-23T04:28:55;20.70;78.10
2363;DHT22;64265;51.664;7.626;2024-02-23T04:31:22;20.70;78.30
2363;DHT22;64265;51.664;7.626;2024-02-23T04:33:53;20.70;78.30
2363;DHT22;64265;51.664;7.626;2024-02-23T04:36:22;20.70;78.20
2363;DHT22;64265;51.664;7.626;2024-02-23T04:38:51;20.70;79.00
2363;DHT22;64265;51.664;7.626;2024-02-23T04:41:21;20.70;78.30
2363;DHT22;64265;51.664;7.626;2024-02-23T04:43:55;20.70;78.10
2363;DHT22;64265;51.664;7.626;2024-02-23T04:46:31;20.70;78.30
2363;DHT22;64265;51.664;7.626;2024-02-23T04:49:06;20.60;78.10
2363;DHT22;64265;51.664;7.626;2024-02-23T04:51:42;20.70;78.30
2363;DHT22;64265;51.664;7.626;2024-02-23T04:54:15;20.70;78.20
2363;DHT22;64265;51.664;7.626;2024-02-23T04:56:41;20.70;78.20
2363;DHT22;64265;51.664;7.626;2024-02-23T04:59:08;20.70;78.20
2363;DHT22;64265;51.664;7.626;2024-02-23T05:01:42;20.60;78.00
2363;DHT22;64265;51.664;7.626;2024-02-23T05:04:29;20.60;78.00
2363;DHT22;64265;51.664;7.626;2024-02-23T05:06:58;20.60;77.90
2363;DHT22;64265;51.664;7.626;2024-02-23T05:09:29;20.60;77.90
2363;DHT22;64265;51.664;7.626;2024-02-23T05:11:57;20.60;77.90
2363;DHT22;64265;51.664;7.626;2024-02-23T05:14:27;20.60;78.10
2363;DHT22;64265;51.664;7.626;2024-02-23T05:16:53;20.60;78.00
2363;DHT22;64265;51.664;7.626;2024-02-23T05:19:29;20.60;78.10
2363;DHT22;64265;51.664;7.626;2024-02-23T05:21:56;20.60;78.00
2363;DHT22;64265;51.664;7.626;2024-02-23T05:24:31;20.60;78.10
2363;DHT22;64265;51.664;7.626;2024-02-23T05:27:05;20.60;78.20
2363;DHT22;64265;51.664;7.626;2024-02-23T05:29:40;20.60;78.10
2363;DHT22;64265;51.664;7.626;2024-02-23T05:32:11;20.60;78.10
2363;DHT22;64265;51.664;7.626;2024-02-23T05:34:42;20.60;77.90
2363;DHT22;64265;51.664;7.626;2024-02-23T05:37:09;20.60;78.00
2363;DHT22;64265;51.664;7.626;2024-02-23T05:39:39;20.60;78.00
2363;DHT22;64265;51.664;7.626;2024-02-23T05:42:08;20.60;78.00
2363;DHT22;64265;51.664;7.626;2024-02-23T05:44:40;20.60;78.00
2363;DHT22;64265;51.664;7.626;2024-02-23T05:47:09;20.60;78.00
2363;DHT22;64265;51.664;7.626;2024-02-23T05:49:42;20.50;77.90
2363;DHT22;64265;51.664;7.626;2024-02-23T05:52:09;20.50;78.00
2363;DHT22;64265;51.664;7.626;2024-02-23T05:54:42;20.60;78.10
2363;DHT22;64265;51.664;7.626;2024-02-23T05:57:17;20.60;78.20
2363;DHT22;64265;51.664;7.626;2024-02-23T05:59:44;20.50;78.20
2363;DHT22;64265;51.664;7.626;2024-02-23T06:02:13;20.50;78.10
2363;DHT22;64265;51.664;7.626;2024-02-23T06:04:44;20.60;78.10
2363;DHT22;64265;51.664;7.626;2024-02-23T06:07:15;20.50;78.10
2363;DHT22;64265;51.664;7.626;2024-02-23T06:09:44;20.60;78.20
2363;DHT22;64265;51.664;7.626;2024-02-23T06:12:16;20.50;77.90
2363;DHT22;64265;51.664;7.626;2024-02-23T06:14:45;20.50;78.00
2363;DHT22;64265;51.664;7.626;2024-02-23T06:17:16;20.50;77.90
2363;DHT22;64265;51.664;7.626;2024-02-23T06:19:46;20.50;78.00
2363;DHT22;64265;51.664;7.626;2024-02-23T06:22:15;20.50;77.90
2363;DHT22;64265;51.664;7.626;2024-02-23T06:24:48;20.50;77.90
2363;DHT22;64265;51.664;7.626;2024-02-23T06:27:15;20.50;78.00
2363;DHT22;64265;51.664;7.626;2024-02-23T06:29:47;20.50;77.90
2363;DHT22;64265;51.664;7.626;2024-02-23T06:32:29;20.50;78.00
2363;DHT22;64265;51.664;7.626;2024-02-23T06:35:00;20.50;78.10
2363;DHT22;64265;51.664;7.626;2024-02-23T06:37:45;20.50;78.00
2363;DHT22;64265;51.664;7.626;2024-02-23T06:40:18;20.50;78.00
2363;DHT22;64265;51.664;7.626;2024-02-23T06:42:49;20.50;77.90
2363;DHT22;64265;51.664;7.626;2024-02-23T06:45:16;20.50;77.90
2363;DHT22;64265;51.664;7.626;2024-02-23T06:47:44;20.50;77.90
2363;DHT22;64265;51.664;7.626;2024-02-23T06:50:15;20.50;78.00
2363;DHT22;64265;51.664;7.626;2024-02-23T06:52:44;20.50;78.40
2363;DHT22;64265;51.664;7.626;2024-02-23T06:55:19;20.50;78.10
2363;DHT22;64265;51.664;7.626;2024-02-23T06:57:50;20.50;78.20
2363;DHT22;64265;51.664;7.626;2024-02-23T07:00:20;20.50;78.30
2363;DHT22;64265;51.664;7.626;2024-02-23T07:02:53;20.50;78.30
2363;DHT22;64265;51.664;7.626;2024-02-23T07:05:23;20.50;78.40
2363;DHT22;64265;51.664;7.626;2024-02-23T07:07:49;20.50;78.50
2363;DHT22;64265;51.664;7.626;2024-02-23T07:10:16;20.40;78.20
2363;DHT22;64265;51.664;7.626;2024-02-23T07:13:10;20.50;78.50
2363;DHT22;64265;51.664;7.626;2024-02-23T07:15:37;20.40;78.50
2363;DHT22;64265;51.664;7.626;2024-02-23T07:18:12;20.40;78.40
2363;DHT22;64265;51.664;7.626;2024-02-23T07:21:02;20.40;78.40
2363;DHT22;64265;51.664;7.626;2024-02-23T07:23:29;20.40;78.70
2363;DHT22;64265;51.664;7.626;2024-02-23T07:26:05;20.40;78.40
2363;DHT22;64265;51.664;7.626;2024-02-23T07:28:45;20.40;78.50
2363;DHT22;64265;51.664;7.626;2024-02-23T07:31:13;20.40;78.60
2363;DHT22;64265;51.664;7.626;2024-02-23T07:33:42;20.40;78.40
2363;DHT22;64265;51.664;7.626;2024-02-23T07:36:24;20.40;78.30
2363;DHT22;64265;51.664;7.626;2024-02-23T07:38:53;20.40;78.40
2363;DHT22;64265;51.664;7.626;2024-02-23T07:41:23;20.40;78.50
2363;DHT22;64265;51.664;7.626;2024-02-23T07:43:55;20.40;78.70
2363;DHT22;64265;51.664;7.626;2024-02-23T07:46:21;20.40;78.80
2363;DHT22;64265;51.664;7.626;2024-02-23T07:48:50;20.40;79.00
2363;DHT22;64265;51.664;7.626;2024-02-23T07:51:22;20.40;79.10
2363;DHT22;64265;51.664;7.626;2024-02-23T07:54:01;20.50;79.30
2363;DHT22;64265;51.664;7.626;2024-02-23T07:56:31;20.50;79.20
2363;DHT22;64265;51.664;7.626;2024-02-23T07:58:59;20.50;79.30
2363;DHT22;64265;51.664;7.626;2024-02-23T08:01:39;20.50;79.30
2363;DHT22;64265;51.664;7.626;2024-02-23T08:04:12;20.50;79.30
2363;DHT22;64265;51.664;7.626;2024-02-23T08:06:48;20.60;79.70
2363;DHT22;64265;51.664;7.626;2024-02-23T08:09:16;20.60;79.40
2363;DHT22;64265;51.664;7.626;2024-02-23T08:11:43;20.60;79.60
2363;DHT22;64265;51.664;7.626;2024-02-23T08:14:16;20.60;79.60
2363;DHT22;64265;51.664;7.626;2024-02-23T08:16:47;20.70;79.80
2363;DHT22;64265;51.664;7.626;2024-02-23T08:19:18;20.70;79.80
2363;DHT22;64265;51.664;7.626;2024-02-23T08:22:02;20.70;79.80
2363;DHT22;64265;51.664;7.626;2024-02-23T08:24:46;20.70;79.90
2363;DHT22;64265;51.664;7.626;2024-02-23T08:27:14;20.70;79.90
2363;DHT22;64265;51.664;7.626;2024-02-23T08:29:45;20.80;79.70
2363;DHT22;64265;51.664;7.626;2024-02-23T08:32:14;20.80;79.90
2363;DHT22;64265;51.664;7.626;2024-02-23T08:34:42;20.80;79.80
2363;DHT22;64265;51.664;7.626;2024-02-23T08:37:14;20.80;79.80
2363;DHT22;64265;51.664;7.626;2024-02-23T08:39:49;20.80;79.80
2363;DHT22;64265;51.664;7.626;2024-02-23T08:42:28;20.80;79.80
2363;DHT22;64265;51.664;7.626;2024-02-23T08:44:56;20.80;79.80
2363;DHT22;64265;51.664;7.626;2024-02-23T08:47:27;20.80;79.80
2363;DHT22;64265;51.664;7.626;2024-02-23T08:49:59;20.80;79.60
2363;DHT22;64265;51.664;7.626;2024-02-23T08:52:34;20.80;79.60
2363;DHT22;64265;51.664;7.626;2024-02-23T08:55:05;20.80;79.60
2363;DHT22;64265;51.664;7.626;2024-02-23T08:57:36;20.80;78.10
2363;DHT22;64265;51.664;7.626;2024-02-23T09:00:04;20.70;77.20
2363;DHT22;64265;51.664;7.626;2024-02-23T09:02:34;20.80;77.70
2363;DHT22;64265;51.664;7.626;2024-02-23T09:05:06;20.80;78.50
2363;DHT22;64265;51.664;7.626;2024-02-23T09:07:37;20.80;78.50
2363;DHT22;64265;51.664;7.626;2024-02-23T09:10:07;20.90;78.80
2363;DHT22;64265;51.664;7.626;2024-02-23T09:12:40;20.90;78.90
2363;DHT22;64265;51.664;7.626;2024-02-23T09:15:13;20.90;78.90
2363;DHT22;64265;51.664;7.626;2024-02-23T09:17:51;20.90;78.90
2363;DHT22;64265;51.664;7.626;2024-02-23T09:20:23;20.90;78.80
2363;DHT22;64265;51.664;7.626;2024-02-23T09:22:59;21.00;78.90
2363;DHT22;64265;51.664;7.626;2024-02-23T09:25:29;21.00;78.90
2363;DHT22;64265;51.664;7.626;2024-02-23T09:28:00;21.00;78.80
2363;DHT22;64265;51.664;7.626;2024-02-23T09:30:29;21.00;78.70
2363;DHT22;64265;51.664;7.626;2024-02-23T09:32:59;21.00;78.70
2363;DHT22;64265;51.664;7.626;2024-02-23T09:35:34;21.00;78.70
2363;DHT22;64265;51.664;7.626;2024-02-23T09:38:06;21.00;78.60
2363;DHT22;64265;51.664;7.626;2024-02-23T09:40:40;21.10;78.60
2363;DHT22;64265;51.664;7.626;2024-02-23T09:43:14;21.10;78.60
2363;DHT22;64265;51.664;7.626;2024-02-23T09:45:44;21.10;78.50
2363;DHT22;64265;51.664;7.626;2024-02-23T09:48:14;21.10;78.50
2363;DHT22;64265;51.664;7.626;2024-02-23T09:50:48;21.10;77.60
2363;DHT22;64265;51.664;7.626;2024-02-23T09:53:21;21.00;75.70
2363;DHT22;64265;51.664;7.626;2024-02-23T09:55:52;21.00;77.00
2363;DHT22;64265;51.664;7.626;2024-02-23T09:58:37;21.00;77.10
2363;DHT22;64265;51.664;7.626;2024-02-23T10:01:10;21.00;77.00
2363;DHT22;64265;51.664;7.626;2024-02-23T10:03:41;21.00;76.70
2363;DHT22;64265;51.664;7.626;2024-02-23T10:06:14;21.10;76.80
2363;DHT22;64265;51.664;7.626;2024-02-23T10:08:53;21.00;76.60
2363;DHT22;64265;51.664;7.626;2024-02-23T10:11:24;21.00;76.70
2363;DHT22;64265;51.664;7.626;2024-02-23T10:13:56;21.00;76.50
2363;DHT22;64265;51.664;7.626;2024-02-23T10:16:35;21.00;76.60
2363;DHT22;64265;51.664;7.626;2024-02-23T10:19:03;21.00;76.50
2363;DHT22;64265;51.664;7.626;2024-02-23T10:21:32;21.00;76.20
2363;DHT22;64265;51.664;7.626;2024-02-23T10:24:01;21.00;76.10
2363;DHT22;64265;51.664;7.626;2024-02-23T10:26:30;21.10;76.20
2363;DHT22;64265;51.664;7.626;2024-02-23T10:28:57;21.10;76.30
2363;DHT22;64265;51.664;7.626;2024-02-23T10:31:31;21.10;76.40
2363;DHT22;64265;51.664;7.626;2024-02-23T10:34:06;21.10;76.40
2363;DHT22;64265;51.664;7.626;2024-02-23T10:36:51;21.10;76.50
2363;DHT22;64265;51.664;7.626;2024-02-23T10:39:24;21.10;75.40
2363;DHT22;64265;51.664;7.626;2024-02-23T10:42:02;21.00;75.00
2363;DHT22;64265;51.664;7.626;2024-02-23T10:44:30;21.00;74.60
2363;DHT22;64265;51.664;7.626;2024-02-23T10:47:04;21.00;74.80
2363;DHT22;64265;51.664;7.626;2024-02-23T10:49:31;21.00;74.80
2363;DHT22;64265;51.664;7.626;2024-02-23T10:52:10;21.00;74.70
2363;DHT22;64265;51.664;7.626;2024-02-23T10:54:47;21.00;75.10
2363;DHT22;64265;51.664;7.626;2024-02-23T10:57:18;21.10;75.60
2363;DHT22;64265;51.664;7.626;2024-02-23T10:59:46;21.10;75.80
2363;DHT22;64265;51.664;7.626;2024-02-23T11:02:13;21.20;76.00
2363;DHT22;64265;51.664;7.626;2024-02-23T11:04:46;21.20;76.20
2363;DHT22;64265;51.664;7.626;2024-02-23T11:07:29;21.20;76.30
2363;DHT22;64265;51.664;7.626;2024-02-23T11:10:14;21.30;76.40
2363;DHT22;64265;51.664;7.626;2024-02-23T11:12:44;21.30;77.30
2363;DHT22;64265;51.664;7.626;2024-02-23T11:15:26;21.30;76.50
2363;DHT22;64265;51.664;7.626;2024-02-23T11:18:28;21.30;75.90
2363;DHT22;64265;51.664;7.626;2024-02-23T11:21:11;21.30;75.60
2363;DHT22;64265;51.664;7.626;2024-02-23T11:23:56;21.30;76.00
2363;DHT22;64265;51.664;7.626;2024-02-23T11:26:30;21.30;75.70
2363;DHT22;64265;51.664;7.626;2024-02-23T11:29:09;21.30;75.80
2363;DHT22;64265;51.664;7.626;2024-02-23T11:31:53;21.30;75.30
2363;DHT22;64265;51.664;7.626;2024-02-23T11:34:36;21.40;75.70
2363;DHT22;64265;51.664;7.626;2024-02-23T11:37:11;21.40;75.70
2363;DHT22;64265;51.664;7.626;2024-02-23T11:39:46;21.50;76.00
2363;DHT22;64265;51.664;7.626;2024-02-23T11:42:17;21.60;76.10
2363;DHT22;64265;51.664;7.626;2024-02-23T11:44:49;21.60;76.10
2363;DHT22;64265;51.664;7.626;2024-02-23T11:47:20;21.60;76.20
2363;DHT22;64265;51.664;7.626;2024-02-23T11:49:50;21.70;76.40
2363;DHT22;64265;51.664;7.626;2024-02-23T11:52:21;21.70;76.40
2363;DHT22;64265;51.664;7.626;2024-02-23T11:54:48;21.70;76.40
2363;DHT22;64265;51.664;7.626;2024-02-23T11:57:25;21.80;76.50
2363;DHT22;64265;51.664;7.626;2024-02-23T12:00:00;21.80;76.50
2363;DHT22;64265;51.664;7.626;2024-02-23T12:02:28;21.80;76.50
2363;DHT22;64265;51.664;7.626;2024-02-23T12:04:55;21.90;76.50
2363;DHT22;64265;51.664;7.626;2024-02-23T12:07:26;21.90;76.50
2363;DHT22;64265;51.664;7.626;2024-02-23T12:09:54;21.90;76.50
2363;DHT22;64265;51.664;7.626;2024-02-23T12:12:36;21.90;76.50
2363;DHT22;64265;51.664;7.626;2024-02-23T12:15:07;21.90;76.50
2363;DHT22;64265;51.664;7.626;2024-02-23T12:18:00;22.00;76.50
2363;DHT22;64265;51.664;7.626;2024-02-23T12:20:28;22.00;76.50
2363;DHT22;64265;51.664;7.626;2024-02-23T12:23:02;22.00;76.50
2363;DHT22;64265;51.664;7.626;2024-02-23T12:25:41;22.00;76.50
2363;DHT22;64265;51.664;7.626;2024-02-23T12:28:28;22.00;76.50
2363;DHT22;64265;51.664;7.626;2024-02-23T12:31:00;22.10;76.60
2363;DHT22;64265;51.664;7.626;2024-02-23T12:33:29;22.10;76.50
2363;DHT22;64265;51.664;7.626;2024-02-23T12:36:05;22.10;76.50
2363;DHT22;64265;51.664;7.626;2024-02-23T12:38:35;22.10;76.50
2363;DHT22;64265;51.664;7.626;2024-02-23T12:41:04;22.10;76.40
2363;DHT22;64265;51.664;7.626;2024-02-23T12:43:43;22.10;76.40
2363;DHT22;64265;51.664;7.626;2024-02-23T12:46:16;22.20;77.30
2363;DHT22;64265;51.664;7.626;2024-02-23T12:48:47;22.20;77.30
2363;DHT22;64265;51.664;7.626;2024-02-23T12:51:15;22.20;76.50
2363;DHT22;64265;51.664;7.626;2024-02-23T12:53:45;22.20;76.40
2363;DHT22;64265;51.664;7.626;2024-02-23T12:56:17;22.20;76.40
2363;DHT22;64265;51.664;7.626;2024-02-23T12:58:50;22.30;76.40
2363;DHT22;64265;51.664;7.626;2024-02-23T13:01:19;22.30;76.40
2363;DHT22;64265;51.664;7.626;2024-02-23T13:03:45;22.30;76.40
2363;DHT22;64265;51.664;7.626;2024-02-23T13:06:18;22.30;76.20
2363;DHT22;64265;51.664;7.626;2024-02-23T13:08:56;22.30;77.00
2363;DHT22;64265;51.664;7.626;2024-02-23T13:11:25;22.40;76.40
2363;DHT22;64265;51.664;7.626;2024-02-23T13:14:00;22.30;76.10
2363;DHT22;64265;51.664;7.626;2024-02-23T13:16:30;22.40;76.20
2363;DHT22;64265;51.664;7.626;2024-02-23T13:18:57;22.40;76.30
2363;DHT22;64265;51.664;7.626;2024-02-23T13:21:27;22.30;72.50
2363;DHT22;64265;51.664;7.626;2024-02-23T13:23:54;22.20;67.70
2363;DHT22;64265;51.664;7.626;2024-02-23T13:26:22;22.00;63.20
2363;DHT22;64265;51.664;7.626;2024-02-23T13:28:52;21.80;60.50
2363;DHT22;64265;51.664;7.626;2024-02-23T13:31:27;21.60;57.60
2363;DHT22;64265;51.664;7.626;2024-02-23T13:33:59;21.60;57.80
2363;DHT22;64265;51.664;7.626;2024-02-23T13:36:27;21.40;56.00
2363;DHT22;64265;51.664;7.626;2024-02-23T13:38:59;21.30;54.70
2363;DHT22;64265;51.664;7.626;2024-02-23T13:41:25;21.20;54.00
2363;DHT22;64265;51.664;7.626;2024-02-23T13:43:52;21.20;54.80
2363;DHT22;64265;51.664;7.626;2024-02-23T13:46:24;21.10;53.20
2363;DHT22;64265;51.664;7.626;2024-02-23T13:49:04;21.00;52.60
2363;DHT22;64265;51.664;7.626;2024-02-23T13:51:55;20.90;52.10
2363;DHT22;64265;51.664;7.626;2024-02-23T13:54:24;20.80;52.30
2363;DHT22;64265;51.664;7.626;2024-02-23T13:56:58;20.80;53.30
2363;DHT22;64265;51.664;7.626;2024-02-23T13:59:25;20.80;53.30
2363;DHT22;64265;51.664;7.626;2024-02-23T14:01:58;21.00;55.90
2363;DHT22;64265;51.664;7.626;2024-02-23T14:04:25;21.10;56.00
2363;DHT22;64265;51.664;7.626;2024-02-23T14:06:52;21.30;57.10
2363;DHT22;64265;51.664;7.626;2024-02-23T14:09:25;21.40;57.30
2363;DHT22;64265;51.664;7.626;2024-02-23T14:11:55;21.50;57.60
2363;DHT22;64265;51.664;7.626;2024-02-23T14:14:21;21.60;58.40
2363;DHT22;64265;51.664;7.626;2024-02-23T14:16:55;21.70;58.80
2363;DHT22;64265;51.664;7.626;2024-02-23T14:19:26;21.70;59.10
2363;DHT22;64265;51.664;7.626;2024-02-23T14:22:02;21.80;59.60
2363;DHT22;64265;51.664;7.626;2024-02-23T14:24:29;21.80;59.80
2363;DHT22;64265;51.664;7.626;2024-02-23T14:27:00;21.90;60.50
2363;DHT22;64265;51.664;7.626;2024-02-23T14:29:38;21.90;61.60
2363;DHT22;64265;51.664;7.626;2024-02-23T14:32:07;22.00;61.00
2363;DHT22;64265;51.664;7.626;2024-02-23T14:34:41;22.00;62.00
2363;DHT22;64265;51.664;7.626;2024-02-23T14:37:17;22.00;62.10
2363;DHT22;64265;51.664;7.626;2024-02-23T14:39:46;22.10;62.60
2363;DHT22;64265;51.664;7.626;2024-02-23T14:42:22;22.10;63.00
2363;DHT22;64265;51.664;7.626;2024-02-23T14:44:54;22.10;63.20
2363;DHT22;64265;51.664;7.626;2024-02-23T14:47:21;22.20;63.20
2363;DHT22;64265;51.664;7.626;2024-02-23T14:49:56;22.20;63.70
2363;DHT22;64265;51.664;7.626;2024-02-23T14:52:24;22.20;63.70
2363;DHT22;64265;51.664;7.626;2024-02-23T14:54:56;22.20;64.00
2363;DHT22;64265;51.664;7.626;2024-02-23T14:57:35;22.30;64.50
2363;DHT22;64265;51.664;7.626;2024-02-23T15:00:08;22.30;64.70
2363;DHT22;64265;51.664;7.626;2024-02-23T15:02:38;22.30;64.70
2363;DHT22;64265;51.664;7.626;2024-02-23T15:05:10;22.30;65.10
2363;DHT22;64265;51.664;7.626;2024-02-23T15:07:45;22.40;65.00
2363;DHT22;64265;51.664;7.626;2024-02-23T15:10:19;22.40;65.50
2363;DHT22;64265;51.664;7.626;2024-02-23T15:12:48;22.40;65.60
2363;DHT22;64265;51.664;7.626;2024-02-23T15:15:15;22.40;65.60
2363;DHT22;64265;51.664;7.626;2024-02-23T15:17:47;22.40;65.60
2363;DHT22;64265;51.664;7.626;2024-02-23T15:20:16;22.40;66.10
2363;DHT22;64265;51.664;7.626;2024-02-23T15:22:43;22.40;66.00
2363;DHT22;64265;51.664;7.626;2024-02-23T15:25:15;22.40;65.90
2363;DHT22;64265;51.664;7.626;2024-02-23T15:27:44;22.40;66.20
2363;DHT22;64265;51.664;7.626;2024-02-23T15:30:11;22.40;66.20
2363;DHT22;64265;51.664;7.626;2024-02-23T15:32:46;22.40;66.00
2363;DHT22;64265;51.664;7.626;2024-02-23T15:35:16;22.40;66.40
2363;DHT22;64265;51.664;7.626;2024-02-23T15:37:45;22.40;66.20
2363;DHT22;64265;51.664;7.626;2024-02-23T15:40:12;22.40;65.90
2363;DHT22;64265;51.664;7.626;2024-02-23T15:42:44;22.40;65.90
2363;DHT22;64265;51.664;7.626;2024-02-23T15:45:17;22.30;65.80
2363;DHT22;64265;51.664;7.626;2024-02-23T15:47:46;22.30;66.00
2363;DHT22;64265;51.664;7.626;2024-02-23T15:50:20;22.40;66.60
2363;DHT22;64265;51.664;7.626;2024-02-23T15:52:51;22.50;67.30
2363;DHT22;64265;51.664;7.626;2024-02-23T15:55:22;22.60;67.10
2363;DHT22;64265;51.664;7.626;2024-02-23T15:57:58;22.60;67.20
2363;DHT22;64265;51.664;7.626;2024-02-23T16:00:25;22.60;67.50
2363;DHT22;64265;51.664;7.626;2024-02-23T16:02:55;22.60;67.50
2363;DHT22;64265;51.664;7.626;2024-02-23T16:05:32;22.60;67.60
2363;DHT22;64265;51.664;7.626;2024-02-23T16:08:02;22.60;67.60
2363;DHT22;64265;51.664;7.626;2024-02-23T16:10:32;22.60;67.90
2363;DHT22;64265;51.664;7.626;2024-02-23T16:13:13;22.60;68.10
2363;DHT22;64265;51.664;7.626;2024-02-23T16:15:43;22.60;68.20
2363;DHT22;64265;51.664;7.626;2024-02-23T16:18:12;22.60;68.30
2363;DHT22;64265;51.664;7.626;2024-02-23T16:20:50;22.70;68.40
2363;DHT22;64265;51.664;7.626;2024-02-23T16:23:20;22.70;68.50
2363;DHT22;64265;51.664;7.626;2024-02-23T16:25:49;22.70;68.70
2363;DHT22;64265;51.664;7.626;2024-02-23T16:28:18;22.60;68.50